Terminal Aerodrome Forecast
Issued by NWS Pocatello, ID

Home | Current Version | Previous Version | Text Only | Print | Product List | Glossary On
Versions: 1 2 3 4 5 6 7 8 9 10 11 12 13 14 15 16 17 18 19 20 21 22
000
FTUS45 KPIH 010500
TAFIDA
TAF
KIDA 010526Z 0106/0206 VRB03KT P6SM BKN012
     FM011000 VRB04KT P6SM OVC008
     FM011700 VRB03KT P6SM SCT012 OVC110
     FM020400 22007KT P6SM VCSH SCT010 OVC040=

USA.gov is the U.S. government's official web portal to all federal, state and local government web resources and services.